Time;durP1;ratioP1;P1;durP2;ratioP2;P2;SDS_P1;SDS_P2;PMS_P1;PMS_P2;Temp;Humidity;BMP_temperature;BMP_pressure;BME280_temperature;BME280_humidity;BME280_pressure;Samples;Min_cycle;Max_cycle;Signal;HPM_P1;HPM_P2
2022/07/20 00:00:29;;;;;;;5.32;3.22;;;27.40;94.80;;;;;;4232385;28;20217;-80
2022/07/20 00:02:33;;;;;;;4.47;2.80;;;27.40;94.90;;;;;;4232574;28;20214;-80
2022/07/20 00:04:35;;;;;;;4.07;3.10;;;27.40;94.70;;;;;;4232203;27;20238;-81
2022/07/20 00:06:37;;;;;;;5.72;3.22;;;27.40;94.80;;;;;;4236284;27;20251;-80
2022/07/20 00:13:19;;;;;;;3.20;2.90;;;27.40;94.80;;;;;;4249296;27;20181;-80
2022/07/20 00:15:21;;;;;;;4.95;3.42;;;27.40;95.00;;;;;;4248783;27;20209;-79
2022/07/20 00:17:24;;;;;;;3.88;3.30;;;27.40;94.90;;;;;;4248915;27;20213;-80
2022/07/20 00:19:27;;;;;;;4.45;3.35;;;27.40;94.90;;;;;;4248760;27;20265;-80
2022/07/20 00:21:30;;;;;;;3.95;3.20;;;27.30;94.80;;;;;;4248687;27;20265;-80
2022/07/20 00:23:32;;;;;;;4.32;3.33;;;27.30;94.90;;;;;;4248705;27;20213;-79
2022/07/20 00:25:35;;;;;;;5.47;3.45;;;27.30;94.90;;;;;;4248166;27;20217;-80
2022/07/20 00:27:37;;;;;;;4.60;3.53;;;27.40;95.00;;;;;;4248858;27;20217;-80
2022/07/20 00:29:39;;;;;;;4.60;3.28;;;27.30;94.90;;;;;;4248640;27;20213;-80
2022/07/20 00:31:42;;;;;;;6.35;3.50;;;27.30;95.00;;;;;;4248274;27;20237;-79
2022/07/20 00:33:46;;;;;;;4.20;3.10;;;27.30;95.00;;;;;;4248643;27;20238;-80
2022/07/20 00:35:50;;;;;;;3.13;2.83;;;27.30;95.10;;;;;;4248561;27;20880;-80
2022/07/20 00:37:52;;;;;;;3.97;3.50;;;27.30;95.00;;;;;;4248447;27;20212;-79
2022/07/20 00:39:54;;;;;;;5.15;3.08;;;27.30;95.00;;;;;;4248290;27;20254;-80
2022/07/20 00:41:56;;;;;;;5.70;3.40;;;27.30;94.90;;;;;;4248428;27;20261;-80
2022/07/20 00:44:01;;;;;;;5.93;3.35;;;27.30;95.00;;;;;;4231547;28;20255;-80
2022/07/20 00:46:04;;;;;;;4.75;3.50;;;27.30;95.00;;;;;;4231195;28;20209;-80
2022/07/20 00:48:07;;;;;;;5.38;3.50;;;27.30;95.10;;;;;;4235931;27;20254;-80
2022/07/20 00:50:10;;;;;;;4.38;3.25;;;27.30;95.40;;;;;;4248731;27;20262;-80
2022/07/20 00:52:14;;;;;;;3.33;3.03;;;27.20;95.20;;;;;;4253505;27;20236;-79
2022/07/20 00:54:16;;;;;;;5.15;3.80;;;27.30;95.20;;;;;;4258606;27;20317;-80
2022/07/20 00:56:20;;;;;;;4.13;3.50;;;27.30;95.60;;;;;;4246744;27;20221;-80
2022/07/20 00:58:22;;;;;;;5.28;3.80;;;27.20;95.40;;;;;;4246660;27;20217;-80
2022/07/20 01:00:25;;;;;;;6.25;4.00;;;27.30;95.50;;;;;;4245555;27;20278;-80
2022/07/20 01:02:27;;;;;;;5.30;4.18;;;27.30;95.40;;;;;;4246535;27;20223;-80
2022/07/20 01:04:29;;;;;;;5.13;3.70;;;27.20;95.40;;;;;;4253952;27;20326;-81
2022/07/20 01:06:32;;;;;;;6.68;3.97;;;27.20;95.80;;;;;;4258075;27;20216;-80
2022/07/20 01:08:36;;;;;;;4.35;3.80;;;27.20;95.70;;;;;;4263724;27;20303;-80
2022/07/20 01:10:38;;;;;;;6.15;4.13;;;27.20;96.00;;;;;;4250082;27;20254;-80
2022/07/20 01:12:44;;;;;;;6.63;4.15;;;27.20;96.20;;;;;;4263409;27;20228;-80
2022/07/20 01:14:47;;;;;;;4.85;3.78;;;27.20;96.00;;;;;;4249351;27;20209;-80
2022/07/20 01:16:49;;;;;;;5.22;4.40;;;27.20;95.90;;;;;;4258465;27;20269;-81
2022/07/20 01:18:51;;;;;;;5.60;4.45;;;27.20;96.20;;;;;;4247769;27;20209;-81
2022/07/20 01:21:00;;;;;;;5.88;4.20;;;27.10;96.70;;;;;;4246074;27;20300;-81
2022/07/20 01:23:02;;;;;;;5.78;4.38;;;27.10;96.50;;;;;;4246616;27;20212;-81
2022/07/20 01:25:05;;;;;;;5.28;3.85;;;27.10;96.50;;;;;;4246413;27;20217;-81
2022/07/20 01:27:07;;;;;;;4.75;4.13;;;27.10;96.80;;;;;;4246338;27;20282;-81
2022/07/20 01:29:10;;;;;;;4.70;4.30;;;27.10;97.10;;;;;;4246303;27;20217;-81
2022/07/20 01:31:13;;;;;;;5.30;4.80;;;27.10;96.90;;;;;;4246226;27;20221;-81
2022/07/20 01:33:15;;;;;;;5.88;4.32;;;27.10;97.10;;;;;;4243340;27;20597;-81
2022/07/20 01:35:18;;;;;;;4.95;4.47;;;27.10;97.30;;;;;;4246478;27;20221;-81
2022/07/20 01:37:21;;;;;;;5.05;4.55;;;27.10;97.30;;;;;;4246179;27;20213;-81
2022/07/20 01:39:23;;;;;;;5.72;4.97;;;27.10;97.50;;;;;;4246375;27;20217;-81
2022/07/20 01:41:26;;;;;;;6.32;5.38;;;27.10;97.50;;;;;;4246007;27;20217;-81
2022/07/20 01:43:28;;;;;;;5.90;5.03;;;27.10;97.40;;;;;;4246783;27;20262;-81
2022/07/20 01:45:33;;;;;;;5.10;4.60;;;27.10;97.10;;;;;;4246929;27;20212;-81
2022/07/20 01:47:35;;;;;;;6.32;5.03;;;27.10;97.80;;;;;;4234696;27;20267;-80
2022/07/20 01:49:37;;;;;;;6.10;4.88;;;27.10;98.00;;;;;;4235511;27;20257;-81
2022/07/20 01:51:39;;;;;;;6.35;5.18;;;27.00;97.90;;;;;;4238501;27;20591;-80
2022/07/20 01:53:43;;;;;;;6.47;5.13;;;27.10;97.70;;;;;;4233459;27;20812;-81
2022/07/20 01:55:45;;;;;;;6.72;5.40;;;27.00;98.10;;;;;;4225075;27;20620;-78
2022/07/20 01:57:48;;;;;;;6.55;5.38;;;27.10;97.80;;;;;;4247419;27;20608;-79
2022/07/20 01:59:50;;;;;;;7.63;5.47;;;27.10;98.40;;;;;;4246599;27;20212;-79
2022/07/20 02:01:52;;;;;;;6.30;5.47;;;27.00;98.20;;;;;;4247232;27;20216;-78
2022/07/20 02:03:55;;;;;;;7.70;5.57;;;27.00;98.10;;;;;;4247096;27;20217;-80
2022/07/20 02:05:57;;;;;;;7.47;5.88;;;27.00;98.50;;;;;;4232660;27;20214;-79
2022/07/20 02:08:00;;;;;;;6.72;6.03;;;27.00;98.50;;;;;;4234945;27;20261;-80
2022/07/20 02:10:05;;;;;;;6.78;5.93;;;27.00;98.30;;;;;;4230538;28;20233;-80
2022/07/20 02:12:08;;;;;;;7.97;5.82;;;27.00;98.60;;;;;;4229761;28;20730;-80
2022/07/20 02:14:10;;;;;;;8.43;6.50;;;27.00;98.90;;;;;;4235156;27;20217;-79
2022/07/20 02:16:14;;;;;;;7.13;6.32;;;27.00;98.60;;;;;;4247314;27;20566;-79
2022/07/20 02:18:17;;;;;;;7.55;6.13;;;27.00;98.40;;;;;;4247023;27;20608;-80
2022/07/20 02:20:19;;;;;;;7.38;6.18;;;27.00;98.70;;;;;;4246919;27;20710;-80
2022/07/20 02:22:21;;;;;;;8.13;6.30;;;27.00;98.90;;;;;;4246688;27;20217;-79
2022/07/20 02:24:23;;;;;;;8.48;6.38;;;27.00;98.50;;;;;;4242554;27;20270;-79
2022/07/20 02:26:27;;;;;;;6.60;6.00;;;27.00;99.40;;;;;;4230098;27;20279;-80
2022/07/20 02:28:30;;;;;;;8.40;7.50;;;27.00;98.80;;;;;;4245518;27;20320;-80
2022/07/20 02:30:32;;;;;;;7.00;6.30;;;26.90;99.00;;;;;;4245710;27;20596;-80
2022/07/20 02:32:34;;;;;;;6.97;6.25;;;26.90;99.30;;;;;;4244660;27;20657;-79
2022/07/20 02:34:36;;;;;;;8.73;6.30;;;26.90;99.20;;;;;;4245668;27;20262;-79
2022/07/20 02:36:39;;;;;;;8.38;7.03;;;27.00;98.90;;;;;;4245282;27;20209;-79
2022/07/20 02:38:41;;;;;;;8.75;6.50;;;26.90;99.40;;;;;;4245714;27;20212;-81
2022/07/20 02:40:43;;;;;;;7.68;6.97;;;26.90;99.60;;;;;;4245822;28;20277;-80
2022/07/20 02:42:47;;;;;;;8.38;6.70;;;26.90;99.30;;;;;;4242997;28;20260;-80
2022/07/20 02:44:49;;;;;;;7.63;6.53;;;26.90;99.60;;;;;;4245498;28;20559;-79
2022/07/20 02:46:51;;;;;;;8.07;7.35;;;26.90;99.60;;;;;;4244713;28;20217;-80
2022/07/20 02:48:54;;;;;;;7.80;7.07;;;26.90;99.90;;;;;;4245600;28;20216;-79
2022/07/20 02:50:56;;;;;;;8.30;7.45;;;26.90;99.90;;;;;;4245471;28;20242;-80
2022/07/20 02:52:58;;;;;;;9.35;7.88;;;26.90;99.70;;;;;;4245142;28;20280;-80
2022/07/20 02:55:00;;;;;;;8.88;7.50;;;26.90;99.90;;;;;;4245468;28;20212;-80
2022/07/20 02:57:03;;;;;;;9.05;7.45;;;26.90;99.90;;;;;;4245152;28;20257;-80
2022/07/20 02:59:06;;;;;;;8.23;7.15;;;26.90;99.90;;;;;;4238953;28;20265;-80
2022/07/20 03:01:09;;;;;;;8.60;7.55;;;26.90;99.90;;;;;;4245661;28;20254;-79
2022/07/20 03:03:12;;;;;;;8.50;7.57;;;26.90;99.90;;;;;;4245432;28;20213;-79
2022/07/20 03:05:15;;;;;;;8.90;7.40;;;26.90;99.90;;;;;;4243950;28;20262;-80
2022/07/20 03:07:17;;;;;;;8.95;7.47;;;26.90;99.90;;;;;;4243735;28;20313;-80
2022/07/20 03:09:19;;;;;;;9.43;8.52;;;26.90;99.90;;;;;;4245601;28;20213;-80
2022/07/20 03:11:22;;;;;;;10.32;8.20;;;26.90;99.90;;;;;;4247628;27;20253;-79
2022/07/20 03:13:24;;;;;;;9.20;8.27;;;26.90;99.90;;;;;;4248698;27;20245;-79
2022/07/20 03:15:28;;;;;;;9.65;8.65;;;26.90;99.90;;;;;;4250221;27;20222;-79
2022/07/20 03:17:30;;;;;;;9.88;8.70;;;26.90;99.90;;;;;;4255641;27;20216;-79
2022/07/20 03:19:32;;;;;;;10.95;9.10;;;26.90;99.90;;;;;;4254069;27;20610;-78
2022/07/20 03:21:35;;;;;;;9.93;8.93;;;26.90;99.90;;;;;;4249240;27;20669;-80
2022/07/20 03:23:37;;;;;;;9.32;8.13;;;26.80;99.90;;;;;;4248581;27;20205;-79
2022/07/20 03:25:39;;;;;;;9.25;8.30;;;26.80;99.90;;;;;;4248556;27;20213;-80
2022/07/20 03:27:42;;;;;;;11.07;8.68;;;26.90;99.90;;;;;;4248595;27;20610;-80
2022/07/20 03:29:44;;;;;;;11.43;9.43;;;26.80;99.90;;;;;;4248751;27;20217;-80
2022/07/20 03:31:48;;;;;;;10.43;9.27;;;26.80;99.90;;;;;;4247413;27;20224;-80
2022/07/20 03:33:50;;;;;;;10.98;9.65;;;26.80;99.90;;;;;;4241292;27;20281;-80
2022/07/20 03:35:52;;;;;;;12.70;9.13;;;26.80;99.90;;;;;;4248327;27;20221;-80
2022/07/20 03:37:55;;;;;;;10.50;9.48;;;26.80;99.90;;;;;;4248368;27;20221;-80
2022/07/20 03:39:57;;;;;;;10.98;9.88;;;26.80;99.90;;;;;;4248661;27;20619;-80
2022/07/20 03:41:59;;;;;;;11.05;9.55;;;26.80;99.90;;;;;;4241494;27;20213;-79
2022/07/20 03:44:01;;;;;;;11.30;10.10;;;26.80;99.90;;;;;;4248264;27;20649;-80
2022/07/20 03:46:04;;;;;;;12.68;9.63;;;26.80;99.90;;;;;;4247559;27;20265;-79
2022/07/20 03:48:08;;;;;;;10.38;9.38;;;26.80;99.90;;;;;;4247924;27;20259;-79
2022/07/20 03:50:10;;;;;;;13.38;9.90;;;26.80;99.90;;;;;;4244967;27;20281;-80
2022/07/20 03:52:12;;;;;;;14.35;9.90;;;26.80;99.90;;;;;;4246160;27;20213;-79
2022/07/20 03:54:15;;;;;;;10.60;9.50;;;26.80;99.90;;;;;;4248149;27;20249;-79
2022/07/20 03:56:17;;;;;;;11.18;10.02;;;26.80;99.90;;;;;;4247996;27;20266;-80
2022/07/20 03:58:19;;;;;;;11.55;9.82;;;26.80;99.90;;;;;;4247920;27;20254;-80
2022/07/20 04:00:21;;;;;;;11.40;10.18;;;26.80;99.90;;;;;;4247970;27;20216;-80
2022/07/20 04:02:24;;;;;;;11.82;10.30;;;26.80;99.90;;;;;;4248540;27;20221;-79
2022/07/20 04:04:28;;;;;;;11.95;9.98;;;26.80;99.90;;;;;;4248690;27;20256;-79
2022/07/20 04:06:31;;;;;;;9.93;9.02;;;26.80;99.90;;;;;;4244894;27;20268;-80
2022/07/20 04:08:34;;;;;;;11.43;10.13;;;26.80;99.90;;;;;;4247723;27;20677;-80
2022/07/20 04:10:36;;;;;;;11.23;10.13;;;26.80;99.90;;;;;;4248100;27;20258;-80
2022/07/20 04:12:39;;;;;;;11.50;9.73;;;26.80;99.90;;;;;;4243160;27;20269;-80
2022/07/20 04:14:41;;;;;;;11.80;9.90;;;26.70;99.90;;;;;;4247549;27;20254;-79
2022/07/20 04:16:43;;;;;;;12.05;10.68;;;26.70;99.90;;;;;;4247738;27;20605;-80
2022/07/20 04:18:48;;;;;;;12.05;10.50;;;26.70;99.90;;;;;;4248147;27;20209;-79
2022/07/20 04:20:51;;;;;;;11.32;10.13;;;26.70;99.90;;;;;;4258348;27;20269;-76
2022/07/20 04:22:54;;;;;;;11.40;10.18;;;26.70;99.90;;;;;;4263834;27;20212;-76
2022/07/20 04:24:56;;;;;;;12.10;10.23;;;26.70;99.90;;;;;;4246700;27;20238;-76
2022/07/20 04:26:58;;;;;;;12.73;11.00;;;26.70;99.90;;;;;;4247456;27;20230;-76
2022/07/20 04:29:01;;;;;;;11.68;9.95;;;26.70;99.90;;;;;;4247078;27;20725;-76
2022/07/20 04:31:03;;;;;;;12.05;10.85;;;26.70;99.90;;;;;;4247400;27;20231;-76
2022/07/20 04:33:05;;;;;;;12.38;11.00;;;26.70;99.90;;;;;;4259021;27;20216;-77
2022/07/20 04:35:09;;;;;;;13.07;10.68;;;26.70;99.90;;;;;;4264230;27;20232;-77
2022/07/20 04:37:13;;;;;;;12.18;10.75;;;26.70;99.90;;;;;;4264398;27;20260;-77
2022/07/20 04:39:15;;;;;;;12.90;11.02;;;26.70;99.90;;;;;;4264365;27;20216;-77
2022/07/20 04:41:17;;;;;;;12.18;10.88;;;26.70;99.90;;;;;;4247029;27;20353;-76
2022/07/20 04:43:20;;;;;;;11.98;10.77;;;26.70;99.90;;;;;;4245949;27;20270;-77
2022/07/20 04:45:22;;;;;;;11.90;10.30;;;26.70;99.90;;;;;;4247058;27;20209;-77
2022/07/20 04:47:24;;;;;;;12.25;11.05;;;26.70;99.90;;;;;;4244638;27;20616;-77
2022/07/20 04:49:27;;;;;;;12.50;11.20;;;26.70;99.90;;;;;;4246961;27;20213;-77
2022/07/20 04:51:29;;;;;;;12.30;11.00;;;26.70;99.90;;;;;;4246944;27;20213;-77
2022/07/20 04:53:33;;;;;;;12.45;10.88;;;26.70;99.90;;;;;;4247099;27;20213;-77
2022/07/20 04:55:35;;;;;;;12.32;10.77;;;26.70;99.90;;;;;;4246955;27;20241;-77
2022/07/20 04:57:37;;;;;;;13.57;11.20;;;26.70;99.90;;;;;;4246079;27;20221;-77
2022/07/20 04:59:40;;;;;;;12.40;11.10;;;26.70;99.90;;;;;;4247090;27;20225;-77
2022/07/20 05:01:42;;;;;;;12.60;11.30;;;26.70;99.90;;;;;;4246701;27;20213;-77
2022/07/20 05:03:44;;;;;;;13.55;11.57;;;26.70;99.90;;;;;;4246739;27;20221;-77
2022/07/20 05:05:47;;;;;;;12.55;11.13;;;26.70;99.90;;;;;;4246453;27;20212;-77
2022/07/20 05:07:49;;;;;;;12.20;11.00;;;26.70;99.90;;;;;;4246377;27;20209;-77
2022/07/20 05:09:53;;;;;;;12.60;11.30;;;26.70;99.90;;;;;;4246641;27;20217;-77
2022/07/20 05:11:55;;;;;;;12.45;11.10;;;26.70;99.90;;;;;;4247130;27;20189;-77
2022/07/20 05:13:57;;;;;;;12.52;11.30;;;26.70;99.90;;;;;;4246097;27;20290;-77
2022/07/20 05:16:00;;;;;;;12.07;10.82;;;26.70;99.90;;;;;;4245587;27;20217;-77
2022/07/20 05:18:03;;;;;;;12.27;10.98;;;26.70;99.90;;;;;;4246544;27;20238;-77
2022/07/20 05:20:06;;;;;;;11.82;10.63;;;26.70;99.90;;;;;;4246163;27;20241;-77
2022/07/20 05:22:08;;;;;;;13.55;11.25;;;26.70;99.90;;;;;;4246600;27;20261;-77
2022/07/20 05:24:11;;;;;;;12.27;10.98;;;26.70;99.90;;;;;;4246767;27;20643;-77
2022/07/20 05:26:14;;;;;;;12.88;11.52;;;26.70;99.90;;;;;;4246561;27;20217;-77
2022/07/20 05:28:18;;;;;;;15.77;11.45;;;26.70;99.90;;;;;;4246815;27;20258;-77
2022/07/20 05:30:20;;;;;;;13.00;11.70;;;26.70;99.90;;;;;;4241142;27;20254;-77
2022/07/20 05:32:23;;;;;;;13.25;11.95;;;26.70;99.90;;;;;;4242842;27;20280;-77
2022/07/20 05:34:25;;;;;;;15.68;12.43;;;26.70;99.90;;;;;;4246225;27;20229;-77
2022/07/20 05:36:27;;;;;;;12.43;11.13;;;26.70;99.90;;;;;;4246640;27;20221;-77
2022/07/20 05:38:30;;;;;;;13.82;12.18;;;26.70;99.90;;;;;;4246484;27;20301;-77
2022/07/20 05:40:33;;;;;;;12.13;10.90;;;26.70;99.90;;;;;;4243693;27;20273;-77
2022/07/20 05:42:36;;;;;;;12.05;10.80;;;26.70;99.90;;;;;;4245996;27;20213;-77
2022/07/20 05:44:39;;;;;;;14.50;11.93;;;26.70;99.90;;;;;;4246125;27;20254;-77
2022/07/20 05:46:41;;;;;;;14.07;11.48;;;26.70;99.90;;;;;;4246254;27;20197;-77
2022/07/20 05:48:43;;;;;;;13.57;12.18;;;26.70;99.90;;;;;;4244056;27;20221;-77
2022/07/20 05:50:46;;;;;;;13.18;11.80;;;26.70;99.90;;;;;;4246461;27;20216;-77
2022/07/20 05:52:48;;;;;;;13.73;11.43;;;26.70;99.90;;;;;;4246118;27;20213;-77
2022/07/20 05:54:51;;;;;;;13.05;11.18;;;26.70;99.90;;;;;;4246001;27;20233;-77
2022/07/20 05:56:53;;;;;;;12.55;11.25;;;26.70;99.90;;;;;;4246166;27;20213;-77
2022/07/20 05:58:57;;;;;;;13.32;11.73;;;26.70;99.90;;;;;;4245886;27;20258;-77
2022/07/20 06:00:59;;;;;;;12.73;11.00;;;26.70;99.90;;;;;;4246359;27;20217;-77
2022/07/20 06:03:02;;;;;;;13.90;12.43;;;26.70;99.90;;;;;;4246475;27;20216;-77
2022/07/20 06:05:04;;;;;;;13.63;12.13;;;26.70;99.90;;;;;;4244214;27;20205;-77
2022/07/20 06:07:07;;;;;;;12.73;11.00;;;26.70;99.90;;;;;;4244980;27;20710;-77
2022/07/20 06:09:09;;;;;;;13.48;12.07;;;26.70;99.90;;;;;;4241573;27;20279;-77
2022/07/20 06:11:12;;;;;;;13.57;11.35;;;26.70;99.90;;;;;;4245666;27;20213;-77
2022/07/20 06:13:14;;;;;;;12.93;11.65;;;26.70;99.90;;;;;;4245695;27;20258;-77
2022/07/20 06:15:18;;;;;;;13.55;12.15;;;26.70;99.90;;;;;;4245930;27;20289;-77
2022/07/20 06:17:21;;;;;;;12.75;11.50;;;26.70;99.90;;;;;;4245871;27;20257;-77
2022/07/20 06:19:23;;;;;;;13.65;12.00;;;26.70;99.90;;;;;;4245818;27;20217;-77
2022/07/20 06:21:25;;;;;;;14.50;12.18;;;26.70;99.90;;;;;;4244904;27;20229;-77
2022/07/20 06:23:27;;;;;;;13.23;11.75;;;26.70;99.90;;;;;;4242738;27;20229;-78
2022/07/20 06:25:30;;;;;;;13.45;12.02;;;26.70;99.90;;;;;;4245916;27;20611;-78
2022/07/20 06:27:32;;;;;;;13.75;11.65;;;26.70;99.90;;;;;;4245858;27;20217;-78
2022/07/20 06:29:35;;;;;;;13.98;12.18;;;26.70;99.90;;;;;;4235265;27;20213;-78
2022/07/20 06:31:38;;;;;;;13.82;12.10;;;26.70;99.90;;;;;;4244942;27;20220;-78
2022/07/20 06:33:40;;;;;;;15.80;11.60;;;26.70;99.90;;;;;;4244955;27;20208;-76
2022/07/20 06:35:43;;;;;;;14.02;12.00;;;26.70;99.90;;;;;;4245689;27;20274;-76
2022/07/20 06:37:45;;;;;;;12.88;11.40;;;26.70;99.90;;;;;;4246028;27;20793;-76
2022/07/20 06:39:48;;;;;;;12.88;11.25;;;26.70;99.90;;;;;;4242663;27;20220;-76
2022/07/20 06:41:50;;;;;;;13.43;12.07;;;26.70;99.90;;;;;;4245476;27;20277;-76
2022/07/20 06:43:52;;;;;;;12.93;11.52;;;26.70;99.90;;;;;;4245809;27;20235;-77
2022/07/20 06:45:54;;;;;;;12.98;11.68;;;26.70;99.90;;;;;;4245844;27;20266;-76
2022/07/20 06:47:58;;;;;;;12.50;11.20;;;26.70;99.90;;;;;;4245725;28;20669;-76
2022/07/20 06:50:00;;;;;;;12.75;11.50;;;26.70;99.90;;;;;;4245505;28;20217;-76
2022/07/20 06:52:03;;;;;;;12.77;11.38;;;26.70;99.90;;;;;;4245668;28;20213;-76
2022/07/20 06:54:06;;;;;;;13.45;12.07;;;26.70;99.90;;;;;;4245267;28;20217;-76
2022/07/20 06:56:11;;;;;;;12.57;11.27;;;26.70;99.90;;;;;;4243241;28;20283;-76
2022/07/20 06:58:13;;;;;;;15.80;12.52;;;26.70;99.90;;;;;;4244665;28;20266;-76
2022/07/20 07:00:16;;;;;;;14.23;10.95;;;26.70;99.90;;;;;;4245234;28;20269;-76
2022/07/20 07:02:18;;;;;;;13.25;11.70;;;26.80;99.90;;;;;;4245485;28;20722;-77
2022/07/20 07:04:22;;;;;;;12.95;11.65;;;26.70;99.90;;;;;;4242224;28;20702;-77
2022/07/20 07:06:27;;;;;;;13.15;11.57;;;26.70;99.90;;;;;;4245223;28;20981;-77
2022/07/20 07:08:29;;;;;;;13.40;11.70;;;26.70;99.90;;;;;;4244958;28;20269;-77
2022/07/20 07:10:34;;;;;;;12.68;11.30;;;26.70;99.90;;;;;;4245341;28;20217;-77
2022/07/20 07:12:37;;;;;;;12.73;10.77;;;26.70;99.90;;;;;;4245577;28;20265;-77
2022/07/20 07:14:39;;;;;;;11.77;10.57;;;26.70;99.90;;;;;;4240338;28;20232;-77
2022/07/20 07:16:41;;;;;;;17.48;9.02;;;26.70;99.90;;;;;;4241775;28;20228;-77
2022/07/20 07:18:44;;;;;;;15.32;8.35;;;26.60;99.90;;;;;;4236494;28;20213;-77
2022/07/20 07:20:48;;;;;;;15.95;8.07;;;26.20;99.90;;;;;;4244812;28;20232;-76
2022/07/20 07:22:50;;;;;;;13.73;7.78;;;25.70;99.90;;;;;;4234666;28;20592;-76
2022/07/20 07:24:52;;;;;;;9.88;7.28;;;25.10;99.90;;;;;;4229761;28;20217;-77
2022/07/20 07:26:55;;;;;;;10.48;7.88;;;24.90;99.90;;;;;;4216223;28;20210;-77
2022/07/20 07:28:57;;;;;;;12.80;7.97;;;24.70;99.90;;;;;;4218180;28;20271;-77
2022/07/20 07:30:59;;;;;;;14.60;8.02;;;24.50;99.90;;;;;;4221841;28;20222;-77
2022/07/20 07:33:01;;;;;;;11.02;7.75;;;24.60;99.90;;;;;;4228943;28;20226;-75
2022/07/20 07:35:04;;;;;;;11.73;8.02;;;24.70;99.90;;;;;;4221576;28;20251;-75
2022/07/20 07:37:08;;;;;;;12.43;7.20;;;24.70;99.90;;;;;;4236313;28;20234;-76
2022/07/20 07:39:10;;;;;;;15.55;7.93;;;24.60;99.90;;;;;;4228986;28;20214;-76
2022/07/20 07:41:13;;;;;;;14.02;8.15;;;24.50;99.90;;;;;;4229112;28;20219;-76
2022/07/20 07:43:16;;;;;;;13.00;7.72;;;24.40;99.90;;;;;;4228729;28;20650;-76
2022/07/20 07:45:18;;;;;;;14.48;8.10;;;24.40;99.90;;;;;;4214678;28;20234;-76
2022/07/20 07:47:20;;;;;;;14.27;7.90;;;24.50;99.90;;;;;;4212987;28;20307;-75
2022/07/20 07:49:22;;;;;;;12.07;7.47;;;24.50;99.90;;;;;;4215606;28;20207;-76
2022/07/20 07:51:25;;;;;;;11.98;7.38;;;24.50;99.90;;;;;;4224337;28;20302;-76
2022/07/20 07:53:29;;;;;;;11.90;6.85;;;24.60;99.90;;;;;;4223683;28;20205;-76
2022/07/20 07:55:31;;;;;;;12.82;7.15;;;24.50;99.90;;;;;;4229232;28;20259;-76
2022/07/20 07:57:33;;;;;;;9.38;7.03;;;24.60;99.90;;;;;;4223419;28;20272;-76
2022/07/20 07:59:36;;;;;;;10.68;7.03;;;24.50;99.90;;;;;;4218556;28;20209;-77
2022/07/20 08:01:38;;;;;;;9.75;6.30;;;24.50;99.90;;;;;;4218814;27;20271;-77
2022/07/20 08:03:40;;;;;;;10.82;7.07;;;24.50;99.90;;;;;;4220151;28;20214;-76
2022/07/20 08:05:43;;;;;;;11.73;7.43;;;24.50;99.90;;;;;;4227873;27;20222;-75
2022/07/20 08:07:45;;;;;;;9.27;6.57;;;24.50;99.90;;;;;;4225864;28;20260;-75
2022/07/20 08:09:49;;;;;;;10.45;7.47;;;24.60;99.90;;;;;;4216004;28;20219;-75
2022/07/20 08:11:51;;;;;;;12.95;7.47;;;24.50;99.90;;;;;;4222127;28;20239;-75
2022/07/20 08:13:54;;;;;;;13.60;7.35;;;24.50;99.90;;;;;;4224328;27;20219;-75
2022/07/20 08:15:57;;;;;;;13.80;8.00;;;24.60;99.90;;;;;;4222074;28;20230;-75
2022/07/20 08:17:59;;;;;;;15.15;8.05;;;24.50;99.90;;;;;;4231420;28;20267;-76
2022/07/20 08:20:02;;;;;;;14.80;8.27;;;24.50;99.90;;;;;;4235094;27;20274;-76
2022/07/20 08:22:04;;;;;;;12.95;8.07;;;24.50;99.90;;;;;;4244357;27;20277;-76
2022/07/20 08:24:07;;;;;;;13.15;8.20;;;24.40;99.90;;;;;;4242613;27;20266;-75
2022/07/20 08:26:11;;;;;;;12.60;7.55;;;24.30;99.90;;;;;;4241698;27;20206;-76
2022/07/20 08:28:16;;;;;;;17.25;8.23;;;24.30;99.90;;;;;;4248474;27;20213;-75
2022/07/20 08:30:18;;;;;;;14.13;8.05;;;24.30;99.90;;;;;;4244146;27;20197;-75
2022/07/20 08:32:21;;;;;;;14.52;8.63;;;24.20;99.90;;;;;;4241683;27;20205;-76
2022/07/20 08:34:23;;;;;;;12.40;7.75;;;24.20;99.90;;;;;;4248045;27;20205;-76
2022/07/20 08:36:26;;;;;;;13.98;8.25;;;24.20;99.90;;;;;;4235515;27;20762;-76
2022/07/20 08:38:28;;;;;;;13.98;8.40;;;24.10;99.90;;;;;;4236839;27;20925;-76
2022/07/20 08:40:31;;;;;;;13.68;8.45;;;24.20;99.90;;;;;;4242858;27;20221;-76
2022/07/20 08:42:35;;;;;;;14.50;8.52;;;24.20;99.90;;;;;;4245368;27;20212;-76
2022/07/20 08:44:39;;;;;;;14.32;8.75;;;24.10;99.90;;;;;;4239566;27;20213;-77
2022/07/20 08:46:44;;;;;;;12.70;9.38;;;24.10;99.90;;;;;;4246721;27;20730;-76
2022/07/20 08:48:49;;;;;;;17.42;10.05;;;24.10;99.90;;;;;;4244728;27;20209;-76
2022/07/20 08:50:51;;;;;;;16.08;9.27;;;23.90;99.90;;;;;;4246630;27;20217;-76
2022/07/20 08:52:54;;;;;;;13.60;8.98;;;23.90;99.90;;;;;;4240866;27;20231;-76
2022/07/20 08:54:57;;;;;;;13.60;8.98;;;23.90;99.90;;;;;;4241467;27;20217;-75
2022/07/20 08:56:59;;;;;;;16.38;10.43;;;23.90;99.90;;;;;;4239478;27;20236;-75
2022/07/20 08:59:03;;;;;;;16.85;10.55;;;24.00;99.90;;;;;;4247513;27;20225;-76
2022/07/20 09:01:05;;;;;;;15.63;10.48;;;23.90;99.90;;;;;;4244410;27;20271;-76
2022/07/20 09:03:09;;;;;;;14.95;10.32;;;24.00;99.90;;;;;;4247336;27;20209;-76
2022/07/20 09:05:11;;;;;;;17.35;10.45;;;23.90;99.90;;;;;;4248517;27;20217;-77
2022/07/20 09:07:14;;;;;;;13.43;10.75;;;23.90;99.90;;;;;;4248371;27;20661;-77
2022/07/20 09:09:18;;;;;;;13.77;9.63;;;24.00;99.90;;;;;;4248042;27;20945;-77
2022/07/20 09:11:21;;;;;;;11.85;10.50;;;24.00;99.90;;;;;;4247446;27;20209;-79
2022/07/20 09:13:29;;;;;;;17.55;11.52;;;24.00;99.90;;;;;;4244401;27;20217;-78
2022/07/20 09:15:38;;;;;;;18.95;11.00;;;24.10;99.90;;;;;;4245113;27;20234;-77
2022/07/20 09:17:41;;;;;;;18.70;11.43;;;24.10;99.90;;;;;;4246256;27;20883;-77
2022/07/20 09:19:58;;;;;;;17.95;10.98;;;24.10;99.90;;;;;;4247268;27;20209;-77
2022/07/20 09:22:00;;;;;;;13.65;11.52;;;24.10;99.90;;;;;;4243476;27;20258;-77
2022/07/20 09:24:04;;;;;;;15.80;10.95;;;24.10;99.90;;;;;;4242669;27;20364;-77
2022/07/20 09:26:13;;;;;;;16.33;12.27;;;24.10;99.90;;;;;;4247240;27;20606;-77
2022/07/20 09:28:16;;;;;;;17.63;12.27;;;24.10;99.90;;;;;;4246442;27;20301;-77
2022/07/20 09:30:19;;;;;;;14.98;11.95;;;24.10;99.90;;;;;;4246712;27;20258;-78
2022/07/20 09:32:22;;;;;;;19.95;11.73;;;24.10;99.90;;;;;;4248893;27;20555;-75
2022/07/20 09:34:25;;;;;;;17.23;12.05;;;24.10;99.90;;;;;;4243717;27;20254;-76
2022/07/20 09:36:29;;;;;;;19.70;12.85;;;24.10;99.90;;;;;;4243635;27;20282;-78
2022/07/20 09:38:34;;;;;;;22.38;12.00;;;24.00;99.90;;;;;;4247870;27;20221;-78
2022/07/20 09:40:42;;;;;;;19.13;12.10;;;24.00;99.90;;;;;;4247584;27;20274;-78
2022/07/20 09:42:46;;;;;;;18.08;11.65;;;24.10;99.90;;;;;;4247184;27;20629;-78
2022/07/20 09:44:49;;;;;;;17.00;12.00;;;24.10;99.90;;;;;;4247185;27;20221;-77
2022/07/20 09:46:51;;;;;;;16.83;11.95;;;24.10;99.90;;;;;;4244903;27;20209;-78
2022/07/20 09:48:57;;;;;;;18.80;12.00;;;24.20;99.90;;;;;;4244778;27;20213;-78
2022/07/20 09:50:59;;;;;;;19.58;12.45;;;24.20;99.90;;;;;;4247726;27;20213;-77
2022/07/20 09:53:01;;;;;;;16.42;12.82;;;24.20;99.90;;;;;;4246273;27;20226;-77
2022/07/20 09:55:04;;;;;;;15.57;11.63;;;24.30;99.90;;;;;;4242805;27;20261;-77
2022/07/20 09:57:07;;;;;;;18.98;13.00;;;24.30;99.90;;;;;;4243578;27;20232;-77
2022/07/20 09:59:12;;;;;;;14.95;12.07;;;24.40;99.90;;;;;;4246578;27;20229;-78
2022/07/20 10:01:18;;;;;;;19.77;12.20;;;24.40;99.90;;;;;;4246039;27;20217;-76
2022/07/20 10:03:21;;;;;;;19.80;12.35;;;24.40;99.90;;;;;;4244866;27;20213;-75
2022/07/20 10:05:27;;;;;;;17.63;12.25;;;24.50;99.90;;;;;;4239097;27;20217;-75
2022/07/20 10:07:31;;;;;;;20.52;12.35;;;24.50;99.90;;;;;;4243790;27;20217;-75
2022/07/20 10:09:33;;;;;;;17.73;12.27;;;24.50;99.90;;;;;;4240018;27;20221;-76
2022/07/20 10:11:36;;;;;;;17.10;11.75;;;24.60;99.90;;;;;;4245595;27;20217;-76
2022/07/20 10:13:43;;;;;;;14.85;10.75;;;24.60;99.90;;;;;;4246973;27;20213;-76
2022/07/20 10:16:06;;;;;;;14.93;10.20;;;24.60;99.90;;;;;;4232193;27;20220;-77
2022/07/20 10:18:10;;;;;;;18.10;10.18;;;24.70;99.90;;;;;;4240213;27;20224;-75
2022/07/20 10:20:35;;;;;;;12.68;9.70;;;24.70;99.90;;;;;;4243714;27;20229;-75
2022/07/20 10:22:37;;;;;;;13.10;8.98;;;24.80;99.90;;;;;;4242960;27;20620;-76
2022/07/20 10:24:42;;;;;;;11.57;8.88;;;24.90;99.90;;;;;;4246556;27;20242;-76
2022/07/20 10:26:46;;;;;;;11.52;8.25;;;25.00;99.90;;;;;;4243998;27;20559;-77
2022/07/20 10:28:59;;;;;;;11.27;7.90;;;25.10;99.90;;;;;;4245503;27;20208;-77
2022/07/20 10:31:05;;;;;;;11.40;7.88;;;24.90;99.90;;;;;;4242656;27;20270;-77
2022/07/20 10:33:08;;;;;;;9.65;7.57;;;24.90;99.90;;;;;;4246448;27;20217;-76
2022/07/20 10:35:29;;;;;;;9.50;7.50;;;24.90;99.90;;;;;;4234134;27;20274;-76